Time;durP1;ratioP1;P1;durP2;ratioP2;P2;SDS_P1;SDS_P2;PMS_P1;PMS_P2;Temp;Humidity;BMP_temperature;BMP_pressure;BME280_temperature;BME280_humidity;BME280_pressure;Samples;Min_cycle;Max_cycle;Signal;HPM_P1;HPM_P2
2022/10/28 00:01:56;;;;;;;;;;;13.50;99.90;;;;;;5075888;28;19985;-78
2022/10/28 00:04:24;;;;;;;;;;;13.50;99.90;;;;;;5103193;28;20551;-79
2022/10/28 00:06:51;;;;;;;;;;;13.40;99.90;;;;;;5077965;28;19924;-79
2022/10/28 00:09:17;;;;;;;;;;;13.40;99.90;;;;;;5074908;28;19967;-78
2022/10/28 00:11:44;;;;;;;;;;;13.40;99.90;;;;;;5071130;28;20302;-78
2022/10/28 00:14:12;;;;;;;;;;;13.40;99.90;;;;;;5075664;28;19963;-81
2022/10/28 00:16:39;;;;;;;;;;;13.40;99.90;;;;;;5071170;28;19924;-79
2022/10/28 00:19:07;;;;;;;;;;;13.40;99.90;;;;;;5077190;28;19947;-80
2022/10/28 00:21:36;;;;;;;;;;;13.40;99.90;;;;;;5077041;28;19932;-80
2022/10/28 00:24:03;;;;;;;;;;;13.40;99.90;;;;;;5077195;28;20486;-78
2022/10/28 00:26:31;;;;;;;;;;;13.40;99.90;;;;;;5074224;28;20311;-80
2022/10/28 00:28:59;;;;;;;;;;;13.40;99.90;;;;;;5075500;28;19924;-81
2022/10/28 00:31:27;;;;;;;;;;;13.30;99.90;;;;;;5074905;28;19933;-78
2022/10/28 00:33:55;;;;;;;;;;;13.30;99.90;;;;;;5072050;28;19955;-81
2022/10/28 00:36:22;;;;;;;;;;;13.30;99.90;;;;;;5076565;28;20005;-80
2022/10/28 00:38:51;;;;;;;;;;;13.30;99.90;;;;;;5078854;28;19965;-80
2022/10/28 00:41:21;;;;;;;;;;;13.30;99.90;;;;;;5075497;28;19924;-80
2022/10/28 00:43:49;;;;;;;;;;;13.30;99.90;;;;;;5071634;28;19932;-78
2022/10/28 00:46:21;;;;;;;;;;;13.30;99.90;;;;;;5076421;28;19950;-78
2022/10/28 00:48:48;;;;;;;;;;;13.30;99.90;;;;;;5106348;28;19950;-79
2022/10/28 00:51:15;;;;;;;;;;;13.30;99.90;;;;;;5075915;28;19929;-78
2022/10/28 00:53:44;;;;;;;;;;;13.30;99.90;;;;;;5072053;28;19924;-78
2022/10/28 00:56:12;;;;;;;;;;;13.20;99.90;;;;;;5072514;28;19946;-78
2022/10/28 00:58:39;;;;;;;;;;;13.20;99.90;;;;;;5077435;28;19936;-78
2022/10/28 01:01:06;;;;;;;;;;;13.20;99.90;;;;;;5077068;28;20491;-78
2022/10/28 01:03:33;;;;;;;;;;;13.20;99.90;;;;;;5072642;28;19924;-80
2022/10/28 01:06:00;;;;;;;;;;;13.20;99.90;;;;;;5075971;28;20381;-78
2022/10/28 01:08:28;;;;;;;;;;;13.20;99.90;;;;;;5076731;28;19931;-78
2022/10/28 01:11:02;;;;;;;;;;;13.20;99.90;;;;;;5073021;28;20027;-78
2022/10/28 01:13:34;;;;;;;;;;;13.20;99.90;;;;;;5070743;28;19924;-80
2022/10/28 01:16:04;;;;;;;;;;;13.20;99.90;;;;;;5075146;28;20012;-80
2022/10/28 01:18:38;;;;;;;;;;;13.10;99.90;;;;;;5074781;28;20341;-80
2022/10/28 01:21:20;;;;;;;;;;;13.20;99.90;;;;;;5071856;28;19924;-78
2022/10/28 01:23:52;;;;;;;;;;;13.10;99.90;;;;;;5073775;28;19970;-77
2022/10/28 01:26:45;;;;;;;;;;;13.10;99.90;;;;;;5078214;28;20318;-78
2022/10/28 01:29:24;;;;;;;;;;;13.10;99.90;;;;;;5033772;28;19924;-78
2022/10/28 01:31:53;;;;;;;;;;;13.10;99.90;;;;;;5071318;28;19924;-80
2022/10/28 01:34:26;;;;;;;;;;;13.10;99.90;;;;;;5104723;28;20317;-79
2022/10/28 01:36:56;;;;;;;;;;;13.10;99.90;;;;;;5066837;28;19960;-80
2022/10/28 01:39:26;;;;;;;;;;;13.10;99.90;;;;;;5065188;28;20015;-80
2022/10/28 01:41:56;;;;;;;;;;;13.10;99.90;;;;;;5064911;28;19924;-79
2022/10/28 01:44:27;;;;;;;;;;;13.10;99.90;;;;;;5065213;28;19956;-79
2022/10/28 01:46:59;;;;;;;;;;;13.10;99.90;;;;;;5065111;28;19951;-81
2022/10/28 01:49:29;;;;;;;;;;;13.10;99.90;;;;;;5102299;27;19981;-80
2022/10/28 01:52:00;;;;;;;;;;;13.10;99.90;;;;;;5062908;28;20020;-78
2022/10/28 01:54:28;;;;;;;;;;;13.10;99.90;;;;;;5101228;28;20333;-80
2022/10/28 01:56:56;;;;;;;;;;;13.00;99.90;;;;;;5064537;28;19988;-80
2022/10/28 01:59:25;;;;;;;;;;;13.00;99.90;;;;;;5067972;28;19931;-80
2022/10/28 02:01:53;;;;;;;;;;;13.00;99.90;;;;;;5062089;28;20404;-79
2022/10/28 02:04:21;;;;;;;;;;;13.00;99.90;;;;;;5069247;28;19943;-79
2022/10/28 02:06:50;;;;;;;;;;;13.00;99.90;;;;;;5066996;28;19971;-79
2022/10/28 02:09:24;;;;;;;;;;;13.00;99.90;;;;;;5064919;28;19974;-80
2022/10/28 02:11:56;;;;;;;;;;;13.00;99.90;;;;;;5092183;28;19924;-79
2022/10/28 02:14:41;;;;;;;;;;;13.10;99.90;;;;;;5060647;28;19924;-78
2022/10/28 02:17:17;;;;;;;;;;;13.00;99.90;;;;;;5065699;28;20337;-78
2022/10/28 02:19:48;;;;;;;;;;;12.90;99.90;;;;;;5068274;28;19983;-80
2022/10/28 02:22:18;;;;;;;;;;;12.90;99.90;;;;;;5059552;28;19964;-78
2022/10/28 02:24:49;;;;;;;;;;;12.90;99.90;;;;;;5067300;28;19977;-78
2022/10/28 02:27:17;;;;;;;;;;;12.90;99.90;;;;;;5066383;28;20417;-80
2022/10/28 02:29:47;;;;;;;;;;;12.90;99.90;;;;;;5068556;28;19928;-78
2022/10/28 02:32:15;;;;;;;;;;;12.90;99.90;;;;;;5067941;28;20033;-78
2022/10/28 02:34:44;;;;;;;;;;;12.90;99.90;;;;;;5073016;28;19932;-78
2022/10/28 02:37:14;;;;;;;;;;;12.90;99.90;;;;;;5068984;28;19951;-77
2022/10/28 02:39:49;;;;;;;;;;;12.90;99.90;;;;;;5071909;28;19985;-77
2022/10/28 02:42:18;;;;;;;;;;;12.90;99.90;;;;;;5096873;27;20019;-80
2022/10/28 02:44:47;;;;;;;;;;;12.90;99.90;;;;;;5068606;28;20381;-80
2022/10/28 02:47:17;;;;;;;;;;;12.90;99.90;;;;;;5069801;28;19967;-77
2022/10/28 02:49:47;;;;;;;;;;;12.90;99.90;;;;;;5072899;28;19924;-77
2022/10/28 02:52:17;;;;;;;;;;;13.00;99.90;;;;;;5067933;28;20309;-77
2022/10/28 02:54:45;;;;;;;;;;;12.90;99.90;;;;;;5064949;28;19947;-80
2022/10/28 02:57:13;;;;;;;;;;;12.90;99.90;;;;;;5070799;28;19924;-80
2022/10/28 02:59:40;;;;;;;;;;;12.90;99.90;;;;;;5073973;28;19924;-77
2022/10/28 03:02:07;;;;;;;;;;;12.80;99.90;;;;;;5064541;28;20019;-78
2022/10/28 03:04:34;;;;;;;;;;;12.80;99.90;;;;;;5074612;28;19967;-78
2022/10/28 03:07:01;;;;;;;;;;;12.80;99.90;;;;;;5069619;28;19979;-78
2022/10/28 03:09:29;;;;;;;;;;;12.80;99.90;;;;;;5071953;28;19924;-80
2022/10/28 03:11:55;;;;;;;;;;;12.80;99.90;;;;;;5064816;28;20011;-78
2022/10/28 03:14:22;;;;;;;;;;;12.80;99.90;;;;;;5062074;28;19925;-77
2022/10/28 03:16:49;;;;;;;;;;;12.80;99.90;;;;;;5104041;27;20353;-78
2022/10/28 03:19:16;;;;;;;;;;;12.80;99.90;;;;;;5068497;28;19932;-78
2022/10/28 03:21:43;;;;;;;;;;;12.80;99.90;;;;;;5066896;28;19931;-78
2022/10/28 03:24:09;;;;;;;;;;;12.80;99.90;;;;;;5065139;28;20015;-80
2022/10/28 03:26:37;;;;;;;;;;;12.80;99.90;;;;;;5068110;28;19967;-80
2022/10/28 03:29:04;;;;;;;;;;;12.80;99.90;;;;;;5071652;28;19925;-81
2022/10/28 03:31:31;;;;;;;;;;;12.80;99.90;;;;;;5070563;28;19971;-80
2022/10/28 03:33:58;;;;;;;;;;;12.80;99.90;;;;;;5066312;28;20019;-80
2022/10/28 03:36:25;;;;;;;;;;;12.80;99.90;;;;;;5070998;28;20403;-79
2022/10/28 03:38:51;;;;;;;;;;;12.80;99.90;;;;;;5102259;28;19931;-79
2022/10/28 03:41:18;;;;;;;;;;;12.70;99.90;;;;;;5062035;28;19968;-77
2022/10/28 03:43:46;;;;;;;;;;;12.70;99.90;;;;;;5065338;28;20313;-78
2022/10/28 03:46:13;;;;;;;;;;;12.70;99.90;;;;;;5067447;28;19970;-78
2022/10/28 03:48:40;;;;;;;;;;;12.70;99.90;;;;;;5070948;28;20015;-78
2022/10/28 03:51:07;;;;;;;;;;;12.70;99.90;;;;;;5066082;28;19951;-80
2022/10/28 03:53:36;;;;;;;;;;;12.70;99.90;;;;;;5068809;28;20337;-80
2022/10/28 03:56:03;;;;;;;;;;;12.70;99.90;;;;;;5065868;28;19937;-82
2022/10/28 03:58:30;;;;;;;;;;;12.70;99.90;;;;;;5067923;28;19931;-79
2022/10/28 04:00:58;;;;;;;;;;;12.70;99.90;;;;;;5058226;28;19930;-80
2022/10/28 04:03:25;;;;;;;;;;;12.70;99.90;;;;;;5062211;28;20405;-81
2022/10/28 04:05:52;;;;;;;;;;;12.70;99.90;;;;;;5060009;28;19925;-78
2022/10/28 04:08:20;;;;;;;;;;;12.70;99.90;;;;;;5064296;28;19932;-78
2022/10/28 04:10:47;;;;;;;;;;;12.70;99.90;;;;;;5060977;28;19924;-77
2022/10/28 04:13:14;;;;;;;;;;;12.70;99.90;;;;;;5065278;28;19924;-78
2022/10/28 04:15:41;;;;;;;;;;;12.60;99.90;;;;;;5051807;28;20015;-79
2022/10/28 04:18:09;;;;;;;;;;;12.70;99.90;;;;;;5061368;28;20398;-79
2022/10/28 04:20:36;;;;;;;;;;;12.60;99.90;;;;;;5063656;28;19963;-78
2022/10/28 04:23:03;;;;;;;;;;;12.60;99.90;;;;;;4996218;28;1892405;-79
2022/10/28 04:25:30;;;;;;;;;;;12.60;99.90;;;;;;5065542;28;20015;-80
2022/10/28 04:27:57;;;;;;;;;;;12.60;99.90;;;;;;5065476;28;19963;-77
2022/10/28 04:30:24;;;;;;;;;;;12.60;99.90;;;;;;5063222;28;20404;-78
2022/10/28 04:32:51;;;;;;;;;;;12.60;99.90;;;;;;5052287;28;19928;-80
2022/10/28 04:35:19;;;;;;;;;;;12.60;99.90;;;;;;5061192;28;20118;-77
2022/10/28 04:37:46;;;;;;;;;;;12.60;99.90;;;;;;5056323;28;19980;-84
2022/10/28 04:40:13;;;;;;;;;;;12.60;99.90;;;;;;5064797;28;19928;-80
2022/10/28 04:42:42;;;;;;;;;;;12.60;99.90;;;;;;5068942;28;19925;-76
2022/10/28 04:45:09;;;;;;;;;;;12.60;99.90;;;;;;5058042;28;20416;-78
2022/10/28 04:47:36;;;;;;;;;;;12.60;99.90;;;;;;5064029;28;20016;-77
2022/10/28 04:50:06;;;;;;;;;;;12.60;99.90;;;;;;5066172;28;19955;-77
2022/10/28 04:52:34;;;;;;;;;;;12.50;99.90;;;;;;5067971;28;20018;-78
2022/10/28 04:55:01;;;;;;;;;;;12.50;99.90;;;;;;5055619;28;19928;-79
2022/10/28 04:57:28;;;;;;;;;;;12.50;99.90;;;;;;5098184;27;19924;-77
2022/10/28 04:59:55;;;;;;;;;;;12.60;99.90;;;;;;5060948;28;19990;-86
2022/10/28 05:02:22;;;;;;;;;;;12.50;99.90;;;;;;5057655;28;20318;-76
2022/10/28 05:04:49;;;;;;;;;;;12.50;99.90;;;;;;5055573;28;19958;-77
2022/10/28 05:07:16;;;;;;;;;;;12.50;99.90;;;;;;5094289;27;19931;-77
2022/10/28 05:09:44;;;;;;;;;;;12.50;99.90;;;;;;5051913;28;19928;-80
2022/10/28 05:12:10;;;;;;;;;;;12.40;99.90;;;;;;5062442;28;19990;-80
2022/10/28 05:14:37;;;;;;;;;;;12.40;99.90;;;;;;5052537;28;19932;-79
2022/10/28 05:17:04;;;;;;;;;;;12.40;99.90;;;;;;5061394;28;19968;-79
2022/10/28 05:19:31;;;;;;;;;;;12.40;99.90;;;;;;5059492;28;19933;-76
2022/10/28 05:21:57;;;;;;;;;;;12.40;99.90;;;;;;5054908;28;19984;-77
2022/10/28 05:24:24;;;;;;;;;;;12.40;99.90;;;;;;5054587;28;20025;-76
2022/10/28 05:26:52;;;;;;;;;;;12.40;99.90;;;;;;5054122;28;20361;-77
2022/10/28 05:29:19;;;;;;;;;;;12.40;99.90;;;;;;5054648;28;20043;-77
2022/10/28 05:31:46;;;;;;;;;;;12.50;99.90;;;;;;5051070;28;19964;-78
2022/10/28 05:34:13;;;;;;;;;;;12.40;99.90;;;;;;5057237;28;19931;-78
2022/10/28 05:36:40;;;;;;;;;;;12.40;99.90;;;;;;5059672;28;20367;-78
2022/10/28 05:39:06;;;;;;;;;;;12.40;99.90;;;;;;5061466;28;20338;-76
2022/10/28 05:41:33;;;;;;;;;;;12.20;99.90;;;;;;5096053;28;19935;-79
2022/10/28 05:44:01;;;;;;;;;;;12.30;99.90;;;;;;5061780;28;19928;-76
2022/10/28 05:46:28;;;;;;;;;;;12.30;99.90;;;;;;5062462;28;19937;-76
2022/10/28 05:48:55;;;;;;;;;;;12.30;99.90;;;;;;5068572;28;20040;-76
2022/10/28 05:51:22;;;;;;;;;;;12.30;99.90;;;;;;5064339;28;20028;-79
2022/10/28 05:53:50;;;;;;;;;;;12.30;99.90;;;;;;5065642;28;20348;-78
2022/10/28 05:56:16;;;;;;;;;;;12.30;99.90;;;;;;5097712;28;19928;-77
2022/10/28 05:58:43;;;;;;;;;;;12.30;99.90;;;;;;5068830;28;20007;-77
2022/10/28 06:01:11;;;;;;;;;;;12.20;99.90;;;;;;5064536;28;19931;-76
2022/10/28 06:03:38;;;;;;;;;;;12.30;99.90;;;;;;5063857;28;19956;-79
2022/10/28 06:06:05;;;;;;;;;;;12.30;99.90;;;;;;5065431;28;19931;-78
2022/10/28 06:08:32;;;;;;;;;;;12.30;99.90;;;;;;5066288;28;20332;-78
2022/10/28 06:11:00;;;;;;;;;;;12.30;99.90;;;;;;5062479;28;19928;-77
2022/10/28 06:13:27;;;;;;;;;;;12.30;99.90;;;;;;5062421;28;19924;-79
2022/10/28 06:15:54;;;;;;;;;;;12.30;99.90;;;;;;5067342;28;20006;-78
2022/10/28 06:18:22;;;;;;;;;;;12.30;99.90;;;;;;5063156;28;20368;-76
2022/10/28 06:20:53;;;;;;;;;;;12.30;99.90;;;;;;5065020;28;19955;-76
2022/10/28 06:23:20;;;;;;;;;;;12.30;99.90;;;;;;5065418;28;19936;-78
2022/10/28 06:25:46;;;;;;;;;;;12.30;99.90;;;;;;5061259;28;19924;-79
2022/10/28 06:28:13;;;;;;;;;;;12.30;99.90;;;;;;5095853;28;20030;-76
2022/10/28 06:30:40;;;;;;;;;;;12.30;99.90;;;;;;5066584;28;20011;-78
2022/10/28 06:33:07;;;;;;;;;;;12.30;99.90;;;;;;5062307;28;20474;-76
2022/10/28 06:35:35;;;;;;;;;;;12.30;99.90;;;;;;5054993;28;19925;-78
2022/10/28 06:38:02;;;;;;;;;;;12.30;99.90;;;;;;5080579;28;19932;-79
2022/10/28 06:40:29;;;;;;;;;;;12.30;99.90;;;;;;5052999;28;20602;-81
2022/10/28 06:42:59;;;;;;;;;;;12.20;99.90;;;;;;5051401;28;19925;-79
2022/10/28 06:45:26;;;;;;;;;;;12.20;99.90;;;;;;5051395;28;20027;-78
2022/10/28 06:47:55;;;;;;;;;;;12.20;99.90;;;;;;5048804;28;19967;-79
2022/10/28 06:50:22;;;;;;;;;;;12.20;99.90;;;;;;5054984;28;19925;-80
2022/10/28 06:52:50;;;;;;;;;;;12.20;99.90;;;;;;5040852;28;19979;-80
2022/10/28 06:55:18;;;;;;;;;;;12.20;99.90;;;;;;5045987;28;19932;-80
2022/10/28 06:57:45;;;;;;;;;;;12.20;99.90;;;;;;5049438;28;20467;-77
2022/10/28 07:00:13;;;;;;;;;;;12.20;99.90;;;;;;5060811;28;19964;-80
2022/10/28 07:02:39;;;;;;;;;;;12.20;99.90;;;;;;5070765;28;19943;-80
2022/10/28 07:05:07;;;;;;;;;;;12.20;99.90;;;;;;5060055;28;19924;-80
2022/10/28 07:07:36;;;;;;;;;;;12.20;99.90;;;;;;5061667;28;20383;-80
2022/10/28 07:10:04;;;;;;;;;;;12.20;99.90;;;;;;5064417;28;19935;-77
2022/10/28 07:12:31;;;;;;;;;;;12.20;99.90;;;;;;5062630;28;20364;-77
2022/10/28 07:14:58;;;;;;;;;;;12.20;99.90;;;;;;5063936;28;20396;-77
2022/10/28 07:17:25;;;;;;;;;;;12.20;99.90;;;;;;5066532;28;19947;-77
2022/10/28 07:19:51;;;;;;;;;;;12.20;99.90;;;;;;5061597;28;19979;-77
2022/10/28 07:22:18;;;;;;;;;;;12.20;99.90;;;;;;5101770;28;19924;-78
2022/10/28 07:24:45;;;;;;;;;;;12.20;99.90;;;;;;5063611;28;19928;-77
2022/10/28 07:27:13;;;;;;;;;;;12.20;99.90;;;;;;5070249;28;19925;-77
2022/10/28 07:29:40;;;;;;;;;;;12.20;99.90;;;;;;5068849;28;20402;-77
2022/10/28 07:32:07;;;;;;;;;;;12.20;99.90;;;;;;5103357;28;19971;-78
2022/10/28 07:34:34;;;;;;;;;;;12.30;99.90;;;;;;5066341;28;20394;-77
2022/10/28 07:37:01;;;;;;;;;;;12.20;99.90;;;;;;5071495;28;19932;-78
2022/10/28 07:39:27;;;;;;;;;;;12.20;99.90;;;;;;5070639;28;20289;-77
2022/10/28 07:41:54;;;;;;;;;;;12.20;99.90;;;;;;5061640;28;19924;-77
2022/10/28 07:44:22;;;;;;;;;;;12.20;99.90;;;;;;5070319;28;19936;-77
2022/10/28 07:46:49;;;;;;;;;;;12.30;99.90;;;;;;5066485;28;19942;-77
2022/10/28 07:49:17;;;;;;;;;;;12.20;99.90;;;;;;5063446;28;19925;-78
2022/10/28 07:51:44;;;;;;;;;;;12.20;99.90;;;;;;5059686;28;19929;-77
2022/10/28 07:54:11;;;;;;;;;;;12.20;99.90;;;;;;5054490;28;20418;-77
2022/10/28 07:56:38;;;;;;;;;;;12.30;99.90;;;;;;5098265;27;20367;-77
2022/10/28 07:59:04;;;;;;;;;;;12.30;99.90;;;;;;5072085;28;19955;-79
2022/10/28 08:01:33;;;;;;;;;;;12.30;99.90;;;;;;5063273;28;20012;-80
2022/10/28 08:04:02;;;;;;;;;;;12.30;99.90;;;;;;5078079;28;21555;-77
2022/10/28 08:06:29;;;;;;;;;;;12.30;99.90;;;;;;5081327;28;20016;-80
2022/10/28 08:08:56;;;;;;;;;;;12.30;99.90;;;;;;5064012;28;19932;-80
2022/10/28 08:11:24;;;;;;;;;;;12.30;99.90;;;;;;5065468;28;20357;-79
2022/10/28 08:13:52;;;;;;;;;;;12.30;99.90;;;;;;5058831;28;19939;-77
2022/10/28 08:16:19;;;;;;;;;;;12.30;99.90;;;;;;5068727;28;19970;-77
2022/10/28 08:18:47;;;;;;;;;;;12.30;99.90;;;;;;5064287;28;19932;-77
2022/10/28 08:21:14;;;;;;;;;;;12.30;99.90;;;;;;5066094;28;19960;-78
2022/10/28 08:23:45;;;;;;;;;;;12.30;99.90;;;;;;5061944;28;20353;-78
2022/10/28 08:26:12;;;;;;;;;;;12.30;99.90;;;;;;5062422;28;19944;-77
2022/10/28 08:28:39;;;;;;;;;;;12.30;99.90;;;;;;5062558;28;20027;-79
2022/10/28 08:31:07;;;;;;;;;;;12.30;99.90;;;;;;5072384;28;19936;-80
2022/10/28 08:33:34;;;;;;;;;;;12.40;99.90;;;;;;5068598;28;19925;-80
2022/10/28 08:36:02;;;;;;;;;;;12.30;99.90;;;;;;5060241;28;19982;-79
2022/10/28 08:38:29;;;;;;;;;;;12.40;99.90;;;;;;5062487;28;19924;-82
2022/10/28 08:41:01;;;;;;;;;;;12.40;99.90;;;;;;5070775;28;19928;-80
2022/10/28 08:43:32;;;;;;;;;;;12.40;99.90;;;;;;5079604;28;20467;-80
2022/10/28 08:46:01;;;;;;;;;;;12.40;99.90;;;;;;5099372;28;21065;-79
2022/10/28 08:48:31;;;;;;;;;;;12.40;99.90;;;;;;5069776;28;19924;-79
2022/10/28 08:51:01;;;;;;;;;;;12.40;99.90;;;;;;5062868;28;19951;-79
2022/10/28 08:53:33;;;;;;;;;;;12.40;99.90;;;;;;5066817;28;19966;-79
2022/10/28 08:56:05;;;;;;;;;;;12.40;99.90;;;;;;5060972;28;20444;-79
2022/10/28 08:58:34;;;;;;;;;;;12.40;99.90;;;;;;5064783;28;19964;-78
2022/10/28 09:01:00;;;;;;;;;;;12.40;99.90;;;;;;5101248;28;19981;-78
2022/10/28 09:03:29;;;;;;;;;;;12.40;99.90;;;;;;5063925;28;19931;-77
2022/10/28 09:05:59;;;;;;;;;;;12.40;99.90;;;;;;5089285;28;19932;-77
2022/10/28 09:08:27;;;;;;;;;;;12.50;99.90;;;;;;5064563;28;19928;-78
2022/10/28 09:11:07;;;;;;;;;;;12.50;99.90;;;;;;5064542;28;19929;-77
2022/10/28 09:13:40;;;;;;;;;;;12.50;99.90;;;;;;5058376;28;19925;-77
2022/10/28 09:16:10;;;;;;;;;;;12.50;99.90;;;;;;5062442;28;20413;-77
2022/10/28 09:18:45;;;;;;;;;;;12.50;99.90;;;;;;5067084;28;19982;-77
2022/10/28 09:21:18;;;;;;;;;;;12.50;99.90;;;;;;5060611;28;19936;-79
2022/10/28 09:23:48;;;;;;;;;;;12.50;99.90;;;;;;5062668;28;19928;-77
2022/10/28 09:26:20;;;;;;;;;;;12.50;99.90;;;;;;5060918;28;19931;-80
2022/10/28 09:28:53;;;;;;;;;;;12.60;99.90;;;;;;5098508;27;20588;-76
2022/10/28 09:31:24;;;;;;;;;;;12.60;99.90;;;;;;5064817;28;19925;-77
2022/10/28 09:34:04;;;;;;;;;;;12.60;99.90;;;;;;5094623;28;19978;-77
2022/10/28 09:36:33;;;;;;;;;;;12.60;99.90;;;;;;5066060;28;19964;-77
2022/10/28 09:39:01;;;;;;;;;;;12.60;99.90;;;;;;5062480;28;20369;-79
2022/10/28 09:41:31;;;;;;;;;;;12.60;99.90;;;;;;5067227;28;19960;-77
2022/10/28 09:44:03;;;;;;;;;;;12.70;99.90;;;;;;5067700;28;20087;-78
2022/10/28 09:46:31;;;;;;;;;;;12.60;99.90;;;;;;5064637;28;20059;-77
2022/10/28 09:49:00;;;;;;;;;;;12.60;99.90;;;;;;5062354;28;20356;-77
2022/10/28 09:51:29;;;;;;;;;;;12.70;99.90;;;;;;5064130;28;20033;-77
2022/10/28 09:53:57;;;;;;;;;;;12.70;99.90;;;;;;5061369;28;19964;-77
2022/10/28 09:56:24;;;;;;;;;;;12.70;99.90;;;;;;5066594;28;20444;-79
2022/10/28 09:58:53;;;;;;;;;;;12.70;99.90;;;;;;5063336;28;20016;-78
2022/10/28 10:01:20;;;;;;;;;;;12.70;99.90;;;;;;5063792;28;19929;-77
2022/10/28 10:03:48;;;;;;;;;;;12.70;99.90;;;;;;5062025;28;20022;-77
2022/10/28 10:06:16;;;;;;;;;;;12.80;99.90;;;;;;5065882;28;19924;-79
2022/10/28 10:08:44;;;;;;;;;;;12.80;99.90;;;;;;5046566;28;19935;-79
2022/10/28 10:11:13;;;;;;;;;;;12.80;99.90;;;;;;5057511;28;20275;-92
2022/10/28 10:13:42;;;;;;;;;;;12.80;99.90;;;;;;5049861;28;19968;-79
2022/10/28 10:16:13;;;;;;;;;;;12.80;99.90;;;;;;5047837;28;19960;-80
2022/10/28 10:18:45;;;;;;;;;;;12.80;99.90;;;;;;5057816;28;19925;-76
2022/10/28 10:21:13;;;;;;;;;;;12.90;99.90;;;;;;5051528;28;19935;-77
2022/10/28 10:23:40;;;;;;;;;;;12.90;99.90;;;;;;5088133;28;19928;-77
2022/10/28 10:26:08;;;;;;;;;;;12.90;99.90;;;;;;5082872;28;19975;-77
2022/10/28 10:28:36;;;;;;;;;;;12.90;99.90;;;;;;5066121;28;20021;-77
2022/10/28 10:31:03;;;;;;;;;;;12.90;99.90;;;;;;5054483;28;19932;-77
2022/10/28 10:33:33;;;;;;;;;;;12.90;99.90;;;;;;5056638;28;20027;-77
2022/10/28 10:36:01;;;;;;;;;;;13.00;99.90;;;;;;5050852;28;20453;-77
2022/10/28 10:38:29;;;;;;;;;;;13.00;99.90;;;;;;5058233;28;19942;-78
2022/10/28 10:40:56;;;;;;;;;;;13.00;99.90;;;;;;5056560;28;19983;-79
2022/10/28 10:43:24;;;;;;;;;;;13.00;99.90;;;;;;5060653;28;19928;-77
2022/10/28 10:45:59;;;;;;;;;;;13.10;99.90;;;;;;5065019;28;19924;-81
2022/10/28 10:48:26;;;;;;;;;;;13.00;99.90;;;;;;5056466;28;20021;-77
2022/10/28 10:50:55;;;;;;;;;;;13.10;99.90;;;;;;5054318;28;19936;-77
2022/10/28 10:53:25;;;;;;;;;;;13.10;99.90;;;;;;5065697;28;19933;-77
2022/10/28 10:55:54;;;;;;;;;;;13.10;99.90;;;;;;5058764;28;19929;-81
2022/10/28 10:58:22;;;;;;;;;;;13.10;99.90;;;;;;5067005;28;19987;-78
2022/10/28 11:00:50;;;;;;;;;;;13.20;99.90;;;;;;5050573;28;20361;-78
2022/10/28 11:03:19;;;;;;;;;;;13.40;99.90;;;;;;5058056;28;19924;-83
2022/10/28 11:05:50;;;;;;;;;;;13.60;99.90;;;;;;5057050;28;20386;-78
2022/10/28 11:08:24;;;;;;;;;;;13.60;99.90;;;;;;5061644;28;21938;-79
2022/10/28 11:11:03;;;;;;;;;;;13.60;99.90;;;;;;5062718;28;19933;-79
2022/10/28 11:13:30;;;;;;;;;;;13.60;99.90;;;;;;5054827;28;19928;-79
2022/10/28 11:16:00;;;;;;;;;;;13.50;99.90;;;;;;5067853;28;19972;-81
2022/10/28 11:18:30;;;;;;;;;;;13.50;99.90;;;;;;5067341;28;20421;-81
2022/10/28 11:21:02;;;;;;;;;;;13.60;99.90;;;;;;5067514;28;19949;-79
2022/10/28 11:23:40;;;;;;;;;;;13.60;99.90;;;;;;5073131;28;20045;-83
2022/10/28 11:26:08;;;;;;;;;;;13.60;99.90;;;;;;5065108;28;19974;-80
2022/10/28 11:28:46;;;;;;;;;;;13.60;99.90;;;;;;5064228;28;19950;-79
2022/10/28 11:31:23;;;;;;;;;;;13.70;99.90;;;;;;5069355;28;19932;-80
2022/10/28 11:33:54;;;;;;;;;;;13.70;99.90;;;;;;5060792;28;20034;-79
2022/10/28 11:36:25;;;;;;;;;;;13.70;99.90;;;;;;5063167;28;20891;-79
2022/10/28 11:39:12;;;;;;;;;;;13.70;99.90;;;;;;5059758;28;20844;-81
2022/10/28 11:41:46;;;;;;;;;;;13.70;99.90;;;;;;5052237;28;19924;-81
2022/10/28 11:44:20;;;;;;;;;;;13.80;99.90;;;;;;5084439;27;19928;-79
2022/10/28 11:46:52;;;;;;;;;;;14.00;99.90;;;;;;5058221;28;19951;-79
2022/10/28 11:49:29;;;;;;;;;;;14.00;99.90;;;;;;5052152;28;19935;-79
2022/10/28 11:52:00;;;;;;;;;;;14.00;99.90;;;;;;5055513;28;19925;-79
2022/10/28 11:54:31;;;;;;;;;;;14.20;99.90;;;;;;5053343;28;19982;-80
2022/10/28 11:57:02;;;;;;;;;;;14.10;99.90;;;;;;5055700;28;20006;-80
2022/10/28 11:59:35;;;;;;;;;;;14.10;99.90;;;;;;5068096;28;19924;-81
2022/10/28 12:02:11;;;;;;;;;;;14.10;99.90;;;;;;5057489;28;20436;-81
2022/10/28 12:04:51;;;;;;;;;;;14.10;99.90;;;;;;5055550;28;19932;-79
2022/10/28 12:07:24;;;;;;;;;;;14.10;99.90;;;;;;5057085;28;19960;-80
2022/10/28 12:09:57;;;;;;;;;;;14.20;99.90;;;;;;5058488;28;19936;-81
2022/10/28 12:12:29;;;;;;;;;;;14.20;99.90;;;;;;5061206;28;20384;-80
2022/10/28 12:15:01;;;;;;;;;;;14.20;99.90;;;;;;5054496;28;19952;-81
2022/10/28 12:17:30;;;;;;;;;;;14.20;99.90;;;;;;5053071;28;19932;-81
2022/10/28 12:19:59;;;;;;;;;;;14.30;99.90;;;;;;5048290;28;20793;-79
2022/10/28 12:22:27;;;;;;;;;;;14.30;99.90;;;;;;5045224;28;20138;-79
2022/10/28 12:24:55;;;;;;;;;;;14.30;99.90;;;;;;5051040;28;19925;-79
2022/10/28 12:27:23;;;;;;;;;;;14.40;99.90;;;;;;5064416;27;20040;-81
2022/10/28 12:29:54;;;;;;;;;;;14.40;99.90;;;;;;5077723;28;19978;-80
2022/10/28 12:32:23;;;;;;;;;;;14.40;99.90;;;;;;5059997;28;20019;-80
2022/10/28 12:34:53;;;;;;;;;;;14.50;99.90;;;;;;5053921;28;19995;-78
2022/10/28 12:37:21;;;;;;;;;;;14.50;99.90;;;;;;5045638;28;19932;-81
2022/10/28 12:39:51;;;;;;;;;;;14.60;99.90;;;;;;5033354;28;19928;-81
2022/10/28 12:42:21;;;;;;;;;;;14.60;99.90;;;;;;5055299;28;19944;-79
2022/10/28 12:44:49;;;;;;;;;;;14.60;99.90;;;;;;5055607;28;19932;-81
2022/10/28 12:47:21;;;;;;;;;;;14.70;99.90;;;;;;5049195;28;19929;-81
2022/10/28 12:49:54;;;;;;;;;;;14.70;99.90;;;;;;5079938;28;19932;-80
2022/10/28 12:52:25;;;;;;;;;;;14.80;99.90;;;;;;5051419;28;19935;-81
2022/10/28 12:54:55;;;;;;;;;;;14.80;99.90;;;;;;5048237;28;20588;-80
2022/10/28 12:57:23;;;;;;;;;;;14.80;99.90;;;;;;5052253;28;20031;-80
2022/10/28 12:59:52;;;;;;;;;;;14.90;99.90;;;;;;5047968;28;19939;-81
2022/10/28 13:02:23;;;;;;;;;;;14.90;99.90;;;;;;5040867;28;20317;-81
2022/10/28 13:04:50;;;;;;;;;;;14.90;99.90;;;;;;5042841;28;19932;-79
2022/10/28 13:07:26;;;;;;;;;;;14.90;99.90;;;;;;5043043;28;20038;-81
2022/10/28 13:10:01;;;;;;;;;;;14.90;99.90;;;;;;5042316;28;19936;-78
2022/10/28 13:12:28;;;;;;;;;;;;;;;;;;5050417;28;19946;-80
2022/10/28 13:15:11;;;;;;;;;;;15.00;99.90;;;;;;5036615;28;20583;-80
2022/10/28 13:17:46;;;;;;;;;;;15.10;99.90;;;;;;5041621;28;20367;-80
2022/10/28 13:20:17;;;;;;;;;;;15.10;99.90;;;;;;5047342;28;19934;-79
2022/10/28 13:22:59;;;;;;;;;;;15.20;99.90;;;;;;5041703;28;19934;-80
2022/10/28 13:25:35;;;;;;;;;;;15.20;99.90;;;;;;5054772;28;20205;-80
2022/10/28 13:28:02;;;;;;;;;;;15.30;99.90;;;;;;5050701;28;20012;-79
2022/10/28 13:30:30;;;;;;;;;;;15.30;99.90;;;;;;5052729;28;20477;-77
2022/10/28 13:33:04;;;;;;;;;;;15.30;99.90;;;;;;5045501;28;19928;-79
2022/10/28 13:35:35;;;;;;;;;;;15.30;99.90;;;;;;5047851;28;19924;-79
2022/10/28 13:38:03;;;;;;;;;;;15.40;99.90;;;;;;5045062;28;20340;-78
2022/10/28 13:40:48;;;;;;;;;;;15.40;99.90;;;;;;5042532;28;20101;-79
2022/10/28 13:43:19;;;;;;;;;;;15.40;99.90;;;;;;5044167;28;20035;-79
2022/10/28 13:45:52;;;;;;;;;;;15.50;99.90;;;;;;5041597;28;20359;-79
2022/10/28 13:48:33;;;;;;;;;;;15.50;99.90;;;;;;5042690;28;20019;-79
2022/10/28 13:51:14;;;;;;;;;;;15.70;99.90;;;;;;5041175;28;19924;-78
2022/10/28 13:53:54;;;;;;;;;;;15.80;99.90;;;;;;5061034;28;20023;-78
2022/10/28 13:56:24;;;;;;;;;;;15.80;99.90;;;;;;5049224;28;19924;-80
2022/10/28 13:58:52;;;;;;;;;;;15.80;99.90;;;;;;5052475;28;19955;-79
2022/10/28 14:01:52;;;;;;;;;;;15.80;99.90;;;;;;5062975;28;19960;-79
2022/10/28 14:04:23;;;;;;;;;;;15.80;99.90;;;;;;4993801;28;19980;-79
2022/10/28 14:06:50;;;;;;;;;;;15.80;99.90;;;;;;5022249;28;19925;-79
2022/10/28 14:09:23;;;;;;;;;;;15.80;99.90;;;;;;5059141;28;19956;-79
2022/10/28 14:12:03;;;;;;;;;;;15.90;99.90;;;;;;5058133;28;19970;-79
2022/10/28 14:14:30;;;;;;;;;;;15.90;99.90;;;;;;5057401;28;19925;-79
2022/10/28 14:16:57;;;;;;;;;;;15.90;99.90;;;;;;5060592;28;19992;-78
2022/10/28 14:19:24;;;;;;;;;;;15.90;99.90;;;;;;5059389;28;19929;-78
2022/10/28 14:21:52;;;;;;;;;;;16.00;99.90;;;;;;5055625;28;19970;-77
2022/10/28 14:24:34;;;;;;;;;;;16.00;99.90;;;;;;5061794;28;20007;-78
2022/10/28 14:27:19;;;;;;;;;;;16.00;99.90;;;;;;5086613;27;20023;-78
2022/10/28 14:29:47;;;;;;;;;;;16.10;99.90;;;;;;5064529;28;19933;-77